Time;durP1;ratioP1;P1;durP2;ratioP2;P2;SDS_P1;SDS_P2;PMS_P1;PMS_P2;Temp;Humidity;BMP_temperature;BMP_pressure;BME280_temperature;BME280_humidity;BME280_pressure;Samples;Min_cycle;Max_cycle;Signal;HPM_P1;HPM_P2
2023/07/16 00:01:51;;;;;;;;;8.33;7.33;;;;;21.61;45.53;100498.59;4869971;29;45405;-87
2023/07/16 00:04:17;;;;;;;;;8.00;8.00;;;;;21.63;45.76;100505.72;4854603;29;45670;-86
2023/07/16 00:06:42;;;;;;;;;8.00;8.00;;;;;21.65;45.61;100503.84;4871498;29;45525;-86
2023/07/16 00:09:07;;;;;;;;;7.33;7.33;;;;;21.62;45.85;100501.25;4870306;29;47227;-86
2023/07/16 00:11:33;;;;;;;;;7.00;7.00;;;;;21.42;45.79;100474.88;4855465;29;45484;-87
2023/07/16 00:13:59;;;;;;;;;7.33;6.00;;;;;21.60;45.88;100488.72;4870442;29;45376;-86
2023/07/16 00:16:24;;;;;;;;;7.33;7.33;;;;;21.66;45.50;100515.56;4869558;29;45412;-86
2023/07/16 00:18:49;;;;;;;;;6.67;6.67;;;;;21.64;45.73;100509.34;4852631;29;47432;-85
2023/07/16 00:21:15;;;;;;;;;6.00;6.00;;;;;21.62;45.93;100501.25;4868171;29;46227;-86
2023/07/16 00:23:40;;;;;;;;;7.00;6.00;;;;;21.52;46.29;100497.13;4869365;29;45357;-85
2023/07/16 00:26:05;;;;;;;;;6.00;6.00;;;;;21.48;46.22;100495.47;4854453;29;45471;-86
2023/07/16 00:28:31;;;;;;;;;6.00;4.00;;;;;21.50;46.15;100497.16;4871286;29;45326;-87
2023/07/16 00:30:56;;;;;;;;;6.33;6.33;;;;;21.52;46.58;100507.94;4868813;29;45793;-87
2023/07/16 00:33:22;;;;;;;;;7.00;6.00;;;;;21.46;46.24;100503.63;4853418;29;45593;-87
2023/07/16 00:35:51;;;;;;;;;7.33;7.33;;;;;21.52;46.69;100507.94;4854027;29;44878;-87
2023/07/16 00:38:17;;;;;;;;;8.67;7.33;;;;;21.45;46.78;100500.97;4869661;29;46784;-87
2023/07/16 00:40:42;;;;;;;;;7.00;7.00;;;;;21.46;47.07;100521.69;4854029;29;45487;-86
2023/07/16 00:43:08;;;;;;;;;9.33;8.00;;;;;21.42;46.98;100517.28;4869029;29;45455;-87
2023/07/16 00:45:33;;;;;;;;;8.67;8.33;;;;;21.41;47.49;100520.91;4853200;29;45381;-87
2023/07/16 00:47:59;;;;;;;;;10.00;9.00;;;;;21.36;47.76;100513.84;4870767;29;46222;-86
2023/07/16 00:50:24;;;;;;;;;6.00;6.00;;;;;21.31;47.81;100513.13;4868922;29;45717;-86
2023/07/16 00:52:50;;;;;;;;;9.00;9.00;;;;;21.19;47.71;100513.53;4869971;29;45448;-87
2023/07/16 00:55:16;;;;;;;;;9.00;9.00;;;;;21.26;48.24;100509.69;4869555;29;45562;-87
2023/07/16 00:57:41;;;;;;;;;11.67;7.33;;;;;21.25;47.81;100521.44;4853643;29;46523;-86
2023/07/16 01:00:08;;;;;;;;;8.33;7.67;;;;;21.21;48.45;100519.78;4869413;29;45465;-85
2023/07/16 01:02:40;;;;;;;;;8.33;8.33;;;;;21.26;48.42;100523.19;4853179;29;45394;-87
2023/07/16 01:05:07;;;;;;;;;7.00;7.00;;;;;21.21;48.26;100514.38;4873164;29;45314;-86
2023/07/16 01:07:34;;;;;;;;;9.67;8.33;;;;;21.18;48.41;100522.56;4873211;29;47176;-87
2023/07/16 01:10:00;;;;;;;;;8.67;8.67;;;;;21.13;48.63;100524.56;4871656;29;45733;-86
2023/07/16 01:12:27;;;;;;;;;11.00;10.33;;;;;20.87;48.56;100482.16;4856914;29;45370;-86
2023/07/16 01:14:54;;;;;;;;;7.33;7.33;;;;;21.07;48.67;100520.25;4874124;29;45349;-86
2023/07/16 01:17:19;;;;;;;;;9.33;8.00;;;;;21.09;49.36;100528.31;4855738;29;46656;-86
2023/07/16 01:19:44;;;;;;;;;13.00;9.50;;;;;21.06;48.92;100528.38;4871619;29;45402;-86
2023/07/16 01:22:55;;;;;;;;;8.00;8.00;;;;;21.11;48.76;100535.44;4857030;29;45800;-86
2023/07/16 01:29:26;;;;;;;;;7.67;7.67;;;;;20.96;49.71;100536.78;4799086;29;45546;-86
2023/07/16 01:31:54;;;;;;;;;14.33;13.33;;;;;20.88;49.79;100532.56;4797018;29;45782;-86
2023/07/16 01:34:21;;;;;;;;;12.00;7.33;;;;;20.84;49.67;100548.00;4783598;29;45418;-86
2023/07/16 01:36:49;;;;;;;;;13.00;13.00;;;;;20.81;50.30;100550.81;4783287;29;44987;-86
2023/07/16 01:39:15;;;;;;;;;10.00;9.00;;;;;20.71;50.10;100546.63;4782961;29;46951;-86
2023/07/16 01:41:40;;;;;;;;;11.00;9.67;;;;;20.69;50.18;100551.19;4780842;29;45439;-86
2023/07/16 01:44:06;;;;;;;;;10.00;9.00;;;;;20.76;50.05;100555.47;4783089;29;45380;-87
2023/07/16 01:46:33;;;;;;;;;10.00;10.00;;;;;20.74;50.44;100551.91;4782552;29;45435;-86
2023/07/16 01:48:58;;;;;;;;;11.00;10.33;;;;;20.69;51.21;100553.91;4798352;29;46318;-86
2023/07/16 01:51:26;;;;;;;;;15.33;13.00;;;;;20.70;50.78;100561.06;4784311;29;45879;-86
2023/07/16 01:53:52;;;;;;;;;15.67;13.00;;;;;20.61;50.84;100559.53;4783768;29;45404;-86
2023/07/16 01:56:17;;;;;;;;;12.67;12.67;;;;;20.59;50.64;100564.09;4782107;29;45982;-86
2023/07/16 01:58:43;;;;;;;;;11.33;11.33;;;;;20.60;51.03;100565.84;4793002;29;46889;-87
2023/07/16 02:01:11;;;;;;;;;13.00;13.00;;;;;20.60;51.68;100557.75;4820869;29;44944;-86
2023/07/16 02:03:36;;;;;;;;;14.00;11.67;;;;;20.42;51.55;100544.75;4834812;29;45353;-87
2023/07/16 02:06:02;;;;;;;;;10.00;10.00;;;;;20.51;52.18;100572.38;4819032;29;45438;-87
2023/07/16 02:08:27;;;;;;;;;13.00;10.67;;;;;20.47;51.36;100565.31;4840011;29;47115;-87
2023/07/16 02:10:52;;;;;;;;;9.33;9.33;;;;;20.42;51.55;100556.47;4857666;29;45460;-87
2023/07/16 02:13:18;;;;;;;;;8.33;7.00;;;;;20.41;51.45;100562.78;4856739;29;45994;-87
2023/07/16 02:15:43;;;;;;;;;9.33;9.00;;;;;20.41;51.81;100570.91;4871998;29;45417;-87
2023/07/16 02:18:10;;;;;;;;;9.00;9.00;;;;;20.38;52.29;100577.28;4871350;29;46680;-87
2023/07/16 02:20:35;;;;;;;;;9.33;9.33;;;;;20.28;52.10;100570.38;4856926;29;45519;-87
2023/07/16 02:23:01;;;;;;;;;11.33;9.00;;;;;20.26;52.16;100576.72;4873984;29;45451;-88
2023/07/16 02:25:26;;;;;;;;;11.00;11.00;;;;;20.20;52.12;100575.13;4873079;29;45621;-87
2023/07/16 02:27:51;;;;;;;;;8.00;8.00;;;;;20.22;52.50;100580.44;4856738;29;48257;-87
2023/07/16 02:30:17;;;;;;;;;11.67;11.00;;;;;20.16;52.83;100568.91;4871790;29;46009;-87
2023/07/16 02:32:43;;;;;;;;;9.33;7.33;;;;;20.14;52.83;100575.28;4871760;29;45416;-87
2023/07/16 02:35:09;;;;;;;;;8.33;8.33;;;;;20.19;52.83;100576.91;4872574;29;45505;-87
2023/07/16 02:37:35;;;;;;;;;13.00;12.00;;;;;20.13;52.73;100573.50;4871715;29;46968;-87
2023/07/16 02:40:07;;;;;;;;;10.00;7.67;;;;;20.16;52.56;100585.09;4871728;29;45363;-87
2023/07/16 02:43:19;;;;;;;;;10.33;10.00;;;;;20.22;52.92;100591.25;4873617;29;45478;-87
2023/07/16 02:45:45;;;;;;;;;7.00;5.33;;;;;20.03;53.69;100580.09;4870897;29;44916;-87
2023/07/16 02:48:10;;;;;;;;;10.33;8.00;;;;;20.01;53.45;100587.34;4872371;29;45429;-86
2023/07/16 02:50:37;;;;;;;;;11.33;8.33;;;;;19.96;53.90;100584.78;4856458;29;45388;-87
2023/07/16 02:53:07;;;;;;;;;12.33;10.67;;;;;19.95;53.63;100581.16;4873874;29;45398;-87
2023/07/16 02:55:34;;;;;;;;;9.00;7.33;;;;;19.90;54.42;100587.66;4856684;29;45469;-87
2023/07/16 02:58:04;;;;;;;;;10.00;9.33;;;;;19.81;55.51;100579.78;4871550;29;47254;-87
2023/07/16 03:00:29;;;;;;;;;10.67;6.67;;;;;19.77;54.98;100584.38;4855411;29;45430;-87
2023/07/16 03:02:55;;;;;;;;;10.67;10.33;;;;;19.71;55.29;100581.81;4871613;29;45282;-86
2023/07/16 03:05:21;;;;;;;;;10.00;8.00;;;;;19.68;54.28;100580.06;4871357;29;45628;-87
2023/07/16 03:07:47;;;;;;;;;6.67;6.67;;;;;19.73;54.52;100597.06;4872464;29;45450;-87
2023/07/16 03:10:13;;;;;;;;;7.00;7.00;;;;;19.62;55.58;100580.22;4857060;29;45496;-87
2023/07/16 03:12:39;;;;;;;;;10.67;9.33;;;;;19.61;54.90;100588.34;4856458;29;45382;-87
2023/07/16 03:15:08;;;;;;;;;10.00;9.00;;;;;19.75;55.05;100597.00;4871726;29;45467;-87
2023/07/16 03:17:34;;;;;;;;;9.33;7.00;;;;;19.64;55.06;100599.97;4871903;29;45406;-87
2023/07/16 03:19:59;;;;;;;;;12.00;9.00;;;;;19.67;55.24;100605.25;4869865;29;45560;-87
2023/07/16 03:22:25;;;;;;;;;8.67;8.67;;;;;19.61;55.29;100600.03;4856912;29;45433;-87
2023/07/16 03:24:56;;;;;;;;;6.00;6.00;;;;;19.62;55.56;100591.03;4856852;29;45297;-87
2023/07/16 03:27:22;;;;;;;;;8.33;7.00;;;;;19.52;55.84;100594.88;4854886;29;45503;-87
2023/07/16 03:29:47;;;;;;;;;8.33;8.00;;;;;19.35;55.54;100571.94;4872148;29;45396;-87
2023/07/16 03:32:13;;;;;;;;;13.67;10.67;;;;;19.61;55.64;100605.44;4855934;29;45469;-87
2023/07/16 03:34:38;;;;;;;;;12.33;11.00;;;;;19.54;55.83;100604.69;4856340;29;45456;-87
2023/07/16 03:37:03;;;;;;;;;12.67;9.67;;;;;19.39;56.12;100589.81;4870436;29;48103;-86
2023/07/16 03:39:29;;;;;;;;;8.67;6.67;;;;;19.50;55.79;100607.53;4871363;29;45449;-86
2023/07/16 03:41:54;;;;;;;;;10.67;8.67;;;;;19.53;55.74;100615.53;4870961;29;45348;-87
2023/07/16 03:44:21;;;;;;;;;9.33;9.33;;;;;19.53;56.04;100618.22;4872790;29;45330;-86
2023/07/16 03:46:46;;;;;;;;;10.00;8.00;;;;;19.44;57.13;100613.94;4871242;29;45444;-87
2023/07/16 03:49:15;;;;;;;;;9.67;9.33;;;;;19.33;57.14;100613.31;4856448;29;45370;-87
2023/07/16 03:51:41;;;;;;;;;8.33;8.00;;;;;19.30;57.41;100614.28;4872268;29;45414;-86
2023/07/16 03:54:06;;;;;;;;;7.33;6.67;;;;;19.32;57.93;100625.03;4857067;29;45591;-87
2023/07/16 03:56:31;;;;;;;;;9.00;9.00;;;;;19.27;57.94;100627.84;4854178;29;47745;-85
2023/07/16 03:58:57;;;;;;;;;9.00;8.33;;;;;19.22;58.60;100624.38;4855410;29;45402;-85
2023/07/16 04:01:22;;;;;;;;;8.67;8.33;;;;;19.16;58.21;100624.50;4854264;29;45477;-86
2023/07/16 04:03:48;;;;;;;;;6.67;6.67;;;;;19.18;57.92;100633.44;4853525;29;45261;-87
2023/07/16 04:06:13;;;;;;;;;9.67;9.00;;;;;19.11;58.41;100604.88;4870409;29;45711;-86
2023/07/16 04:08:39;;;;;;;;;11.33;9.67;;;;;19.23;57.98;100631.53;4870206;29;45485;-86
2023/07/16 04:11:05;;;;;;;;;11.00;9.33;;;;;19.17;58.77;100629.88;4854798;29;45750;-86
2023/07/16 04:13:31;;;;;;;;;7.00;7.00;;;;;19.22;58.65;100643.22;4871571;29;45528;-86
2023/07/16 04:15:57;;;;;;;;;10.67;9.00;;;;;19.02;58.31;100605.06;4872116;29;46589;-87
2023/07/16 04:18:24;;;;;;;;;11.00;11.00;;;;;19.22;58.93;100640.53;4853414;29;45499;-87
2023/07/16 04:20:49;;;;;;;;;11.00;9.67;;;;;19.22;59.35;100637.84;4869005;29;45509;-87
2023/07/16 04:23:15;;;;;;;;;12.33;11.00;;;;;19.13;58.76;100633.56;4854333;29;45392;-86
2023/07/16 04:25:41;;;;;;;;;13.33;11.33;;;;;19.27;58.62;100638.63;4854400;29;48250;-86
2023/07/16 04:28:06;;;;;;;;;11.00;8.00;;;;;19.30;58.60;100640.38;4870356;29;45755;-87
2023/07/16 04:30:31;;;;;;;;;7.67;7.67;;;;;19.35;59.29;100647.44;4855603;29;45455;-86
2023/07/16 04:32:57;;;;;;;;;12.00;11.33;;;;;19.29;58.89;100646.66;4871156;29;44890;-86
2023/07/16 04:35:22;;;;;;;;;9.00;9.00;;;;;19.29;58.86;100638.56;4854429;29;47064;-87
2023/07/16 04:37:50;;;;;;;;;10.33;9.00;;;;;19.39;60.22;100665.31;4870563;29;45370;-86
2023/07/16 04:40:16;;;;;;;;;11.00;10.33;;;;;19.37;58.95;100663.59;4856274;29;45395;-86
2023/07/16 04:42:41;;;;;;;;;10.67;9.00;;;;;19.39;59.95;100659.91;4858486;29;45325;-87
2023/07/16 04:45:07;;;;;;;;;11.67;8.00;;;;;19.38;60.04;100657.25;4873435;29;45389;-86
2023/07/16 04:47:32;;;;;;;;;9.00;7.33;;;;;19.39;59.57;100659.91;4873899;29;45501;-86
2023/07/16 04:49:59;;;;;;;;;13.33;11.00;;;;;19.47;59.82;100666.91;4856765;29;45533;-86
2023/07/16 04:52:24;;;;;;;;;7.00;7.00;;;;;19.45;60.40;100675.06;4857208;29;45503;-86
2023/07/16 04:54:50;;;;;;;;;14.33;10.33;;;;;19.44;60.13;100675.09;4874191;29;47054;-86
2023/07/16 04:57:16;;;;;;;;;10.67;9.33;;;;;19.53;60.06;100672.16;4858918;29;45464;-86
2023/07/16 04:59:41;;;;;;;;;14.00;13.67;;;;;19.49;59.52;100648.88;4875228;29;45417;-86
2023/07/16 05:02:07;;;;;;;;;12.00;10.67;;;;;19.71;60.90;100677.19;4875603;29;44865;-86
2023/07/16 05:04:33;;;;;;;;;12.33;11.67;;;;;19.70;59.75;100658.28;4874331;29;47109;-86
2023/07/16 05:07:00;;;;;;;;;12.67;11.67;;;;;19.86;59.62;100680.41;4858039;29;45356;-86
2023/07/16 05:09:26;;;;;;;;;15.67;12.00;;;;;19.93;59.73;100680.19;4857661;29;44890;-86
2023/07/16 05:11:51;;;;;;;;;11.67;10.33;;;;;20.04;60.21;100669.13;4859993;29;45434;-86
2023/07/16 05:14:20;;;;;;;;;10.33;7.67;;;;;20.15;59.30;100672.44;4874168;29;47497;-86
2023/07/16 05:16:45;;;;;;;;;12.67;12.67;;;;;20.13;58.90;100658.06;4874940;29;45405;-86
2023/07/16 05:19:11;;;;;;;;;12.33;11.33;;;;;20.28;58.51;100674.78;4859709;29;45955;-86
2023/07/16 05:21:36;;;;;;;;;13.00;9.00;;;;;20.14;58.96;100642.78;4857762;29;45442;-87
2023/07/16 05:24:02;;;;;;;;;10.33;9.00;;;;;20.46;58.58;100679.72;4873084;29;47428;-87
2023/07/16 05:26:27;;;;;;;;;7.00;7.00;;;;;20.53;58.31;100672.31;4875197;29;45403;-86
2023/07/16 05:28:53;;;;;;;;;11.00;9.00;;;;;20.64;58.27;100682.84;4856779;29;45393;-87
2023/07/16 05:31:18;;;;;;;;;16.33;11.67;;;;;20.73;57.75;100679.88;4872939;29;45381;-86
2023/07/16 05:33:44;;;;;;;;;11.00;9.67;;;;;20.80;57.78;100686.88;4874692;29;45330;-87
2023/07/16 05:36:09;;;;;;;;;11.00;9.33;;;;;20.86;57.73;100681.28;4874634;29;45420;-86
2023/07/16 05:38:34;;;;;;;;;11.33;10.33;;;;;20.95;57.74;100681.03;4857192;29;45849;-86
2023/07/16 05:41:02;;;;;;;;;11.00;10.00;;;;;20.98;57.50;100683.63;4857664;29;44860;-87
2023/07/16 05:43:28;;;;;;;;;13.33;12.00;;;;;20.97;57.69;100684.56;4873860;29;46787;-87
2023/07/16 05:45:53;;;;;;;;;12.00;10.67;;;;;21.04;57.47;100689.78;4858489;29;44826;-86
2023/07/16 05:48:19;;;;;;;;;9.00;9.00;;;;;21.09;57.12;100685.16;4859675;29;44878;-86
2023/07/16 05:50:45;;;;;;;;;10.33;10.33;;;;;21.17;57.63;100680.38;4873526;29;45492;-87
2023/07/16 05:53:10;;;;;;;;;16.00;13.67;;;;;21.24;56.90;100687.34;4855758;29;47204;-87
2023/07/16 05:55:36;;;;;;;;;12.00;11.00;;;;;21.30;56.81;100695.28;4855963;29;45137;-86
2023/07/16 05:58:01;;;;;;;;;10.67;9.00;;;;;21.40;57.18;100700.41;4871468;29;45434;-85
2023/07/16 06:00:27;;;;;;;;;10.00;10.00;;;;;21.45;56.61;100699.38;4872137;29;45424;-86
2023/07/16 06:02:52;;;;;;;;;12.00;10.00;;;;;21.49;56.66;100702.84;4857792;29;46702;-86
2023/07/16 06:05:18;;;;;;;;;12.00;11.00;;;;;21.62;56.38;100711.47;4872038;29;45258;-86
2023/07/16 06:07:43;;;;;;;;;12.00;10.67;;;;;21.79;55.94;100717.22;4874197;29;44750;-87
2023/07/16 06:10:09;;;;;;;;;10.33;10.33;;;;;21.94;55.64;100715.84;4872913;29;45393;-85
2023/07/16 06:12:34;;;;;;;;;10.33;9.00;;;;;22.09;54.97;100719.84;4871589;29;45571;-86
2023/07/16 06:15:00;;;;;;;;;5.67;5.67;;;;;22.17;54.87;100718.63;4855165;29;45525;-86
2023/07/16 06:17:25;;;;;;;;;11.33;10.67;;;;;22.26;54.82;100728.31;4873331;29;45531;-85
2023/07/16 06:19:51;;;;;;;;;12.00;11.33;;;;;22.32;54.81;100725.41;4874352;29;45316;-86
2023/07/16 06:22:17;;;;;;;;;10.67;8.67;;;;;22.45;54.91;100724.97;4872063;29;47331;-86
2023/07/16 06:24:43;;;;;;;;;9.00;8.33;;;;;22.48;53.78;100712.19;4872763;29;45785;-86
2023/07/16 06:27:08;;;;;;;;;10.00;9.00;;;;;22.51;53.80;100717.50;4856562;29;45319;-86
2023/07/16 06:29:33;;;;;;;;;14.33;10.33;;;;;22.69;53.57;100725.91;4855621;29;45532;-87
2023/07/16 06:31:59;;;;;;;;;10.00;10.00;;;;;22.76;53.65;100724.72;4857141;29;46881;-86
2023/07/16 06:35:20;;;;;;;;;12.00;12.00;;;;;23.04;53.48;100734.59;4873239;29;45379;-87
2023/07/16 06:37:47;;;;;;;;;13.00;10.00;;;;;23.08;53.07;100731.69;4872991;29;45412;-87
2023/07/16 06:40:12;;;;;;;;;11.67;10.33;;;;;23.23;53.27;100730.25;4874116;28;45610;-87
2023/07/16 06:42:41;;;;;;;;;11.67;11.00;;;;;23.27;52.78;100736.41;4855382;29;46562;-87
2023/07/16 06:45:07;;;;;;;;;11.00;7.67;;;;;23.32;52.52;100738.00;4872239;29;45348;-87
2023/07/16 06:47:34;;;;;;;;;10.67;10.00;;;;;23.26;52.42;100726.50;4857201;29;45348;-87
2023/07/16 06:49:59;;;;;;;;;12.67;8.67;;;;;23.26;52.69;100716.53;4871870;28;45750;-87
2023/07/16 06:52:27;;;;;;;;;8.33;8.33;;;;;23.40;52.08;100731.41;4854941;29;46933;-87
2023/07/16 06:54:55;;;;;;;;;10.67;9.33;;;;;23.39;52.22;100722.38;4871280;29;45150;-87
2023/07/16 06:57:27;;;;;;;;;10.00;10.00;;;;;23.46;52.21;100728.44;4855012;29;45432;-87
2023/07/16 06:59:53;;;;;;;;;11.33;10.67;;;;;23.42;51.81;100730.38;4854745;29;45374;-87
2023/07/16 07:02:19;;;;;;;;;12.00;9.33;;;;;23.45;51.91;100716.72;4870456;29;45433;-87
2023/07/16 07:04:44;;;;;;;;;13.00;9.67;;;;;23.46;51.98;100715.75;4854550;29;45416;-87
2023/07/16 07:07:09;;;;;;;;;10.33;10.33;;;;;23.64;51.47;100722.28;4872884;28;45634;-87
2023/07/16 07:09:38;;;;;;;;;9.67;8.00;;;;;23.66;51.25;100725.81;4871944;28;45698;-87
2023/07/16 07:12:04;;;;;;;;;10.67;9.67;;;;;23.63;51.00;100720.53;4870399;28;48109;-87
2023/07/16 07:14:29;;;;;;;;;11.00;10.33;;;;;23.74;51.35;100726.38;4870966;29;45385;-87
2023/07/16 07:16:54;;;;;;;;;11.67;9.67;;;;;23.90;51.04;100728.50;4854554;29;45397;-87
2023/07/16 07:19:20;;;;;;;;;10.33;9.00;;;;;23.90;51.05;100723.94;4871541;28;45428;-87
2023/07/16 07:21:45;;;;;;;;;8.00;8.00;;;;;23.97;50.38;100732.72;4872593;29;45457;-87
2023/07/16 07:24:10;;;;;;;;;7.67;7.67;;;;;24.00;50.56;100729.00;4870546;29;45229;-87
2023/07/16 07:26:36;;;;;;;;;11.33;10.33;;;;;24.00;50.36;100734.44;4856096;29;45661;-87
2023/07/16 07:29:01;;;;;;;;;9.00;8.00;;;;;24.02;50.28;100744.28;4870799;29;45603;-87
2023/07/16 07:31:27;;;;;;;;;12.33;12.00;;;;;24.01;50.42;100736.19;4855408;29;48361;-87
2023/07/16 07:33:53;;;;;;;;;9.67;9.67;;;;;23.99;50.07;100733.53;4854896;29;45369;-87
2023/07/16 07:40:08;;;;;;;;;9.33;7.67;;;;;24.28;49.23;100729.59;4866651;28;44956;-87
2023/07/16 07:42:33;;;;;;;;;10.67;8.67;;;;;24.19;49.46;100729.09;4868388;29;47127;-87
2023/07/16 07:44:59;;;;;;;;;11.67;10.00;;;;;24.30;49.46;100737.69;4871294;28;45346;-86
2023/07/16 07:47:24;;;;;;;;;13.33;11.00;;;;;24.39;49.47;100726.41;4871825;29;45269;-86
2023/07/16 07:49:52;;;;;;;;;9.00;7.00;;;;;24.60;49.40;100742.75;4871224;29;45683;-86
2023/07/16 07:52:17;;;;;;;;;10.33;8.33;;;;;24.64;48.45;100734.41;4854827;29;48070;-86
2023/07/16 07:54:42;;;;;;;;;12.33;10.00;;;;;24.71;48.38;100740.44;4871372;29;45660;-86
2023/07/16 07:57:08;;;;;;;;;8.67;8.00;;;;;24.74;48.13;100748.47;4854459;29;45524;-87
2023/07/16 07:59:33;;;;;;;;;10.33;9.00;;;;;24.75;48.37;100731.19;4855413;29;45512;-86
2023/07/16 08:01:59;;;;;;;;;11.67;11.67;;;;;24.94;47.93;100745.75;4870542;28;45401;-86
2023/07/16 08:04:25;;;;;;;;;11.33;6.67;;;;;25.06;47.73;100746.13;4869808;29;45362;-86
2023/07/16 08:06:53;;;;;;;;;9.00;9.00;;;;;25.27;47.79;100741.53;4862137;29;44986;-83
2023/07/16 08:09:18;;;;;;;;;9.00;8.33;;;;;25.35;47.42;100750.25;4862774;29;44805;-84
2023/07/16 08:12:17;;;;;;;;;9.00;9.00;;;;;25.51;46.19;100744.94;4844142;29;48104;-83
2023/07/16 08:14:43;;;;;;;;;12.67;10.00;;;;;25.35;45.82;100747.53;4863701;29;45390;-84
2023/07/16 08:17:08;;;;;;;;;9.67;9.67;;;;;25.30;45.50;100758.59;4847536;29;45958;-83
2023/07/16 08:19:34;;;;;;;;;8.67;8.67;;;;;25.21;45.28;100753.63;4865081;29;45475;-83
2023/07/16 08:21:59;;;;;;;;;8.33;7.67;;;;;25.08;45.70;100749.66;4844853;29;46456;-83
2023/07/16 08:24:25;;;;;;;;;9.33;9.00;;;;;25.07;45.81;100745.19;4844660;29;45415;-83
2023/07/16 08:26:53;;;;;;;;;11.00;10.33;;;;;25.31;46.07;100757.66;4861507;29;45404;-83
2023/07/16 08:29:19;;;;;;;;;8.67;8.67;;;;;25.25;45.52;100736.19;4862952;29;45408;-83
2023/07/16 08:31:45;;;;;;;;;8.33;6.33;;;;;25.43;45.77;100741.69;4847553;29;46623;-83
2023/07/16 08:34:12;;;;;;;;;9.67;9.67;;;;;25.65;45.17;100757.88;4858476;29;44794;-84
2023/07/16 08:36:43;;;;;;;;;6.67;6.67;;;;;25.75;44.79;100757.38;4845389;29;45560;-82
2023/07/16 08:39:09;;;;;;;;;9.67;9.67;;;;;25.64;44.81;100757.00;4864941;29;44864;-83
2023/07/16 08:41:35;;;;;;;;;10.33;10.33;;;;;25.54;44.89;100761.13;4862317;29;45713;-84
2023/07/16 08:44:03;;;;;;;;;4.33;3.33;;;;;25.48;44.38;100755.97;4861610;29;45317;-84
2023/07/16 08:46:29;;;;;;;;;6.00;6.00;;;;;25.48;44.19;100761.44;4858761;29;45802;-84
2023/07/16 08:48:57;;;;;;;;;6.00;6.00;;;;;25.64;44.25;100767.03;4846033;29;45765;-86
2023/07/16 08:51:24;;;;;;;;;9.67;8.67;;;;;25.75;44.04;100762.81;4846371;29;48469;-86
2023/07/16 08:53:50;;;;;;;;;4.00;4.00;;;;;25.79;43.57;100757.22;4841961;29;46006;-87
2023/07/16 08:56:15;;;;;;;;;9.00;7.67;;;;;26.04;43.59;100770.56;4846366;29;45394;-87
2023/07/16 08:58:44;;;;;;;;;10.33;8.00;;;;;26.27;43.99;100770.25;4846442;29;45434;-87
2023/07/16 09:01:10;;;;;;;;;7.67;6.00;;;;;26.34;43.67;100765.38;4839311;29;46913;-87
2023/07/16 09:03:35;;;;;;;;;8.00;8.00;;;;;26.34;42.65;100762.66;4858033;28;45436;-87
2023/07/16 09:06:04;;;;;;;;;5.67;5.33;;;;;26.48;43.01;100776.47;4864362;29;45465;-87
2023/07/16 09:08:29;;;;;;;;;8.33;7.00;;;;;26.40;42.14;100767.81;4857423;29;46073;-87
2023/07/16 09:10:56;;;;;;;;;7.67;6.67;;;;;26.34;42.67;100762.66;4846942;29;46929;-87
2023/07/16 09:13:26;;;;;;;;;6.67;6.67;;;;;26.27;42.40;100764.81;4836822;29;45362;-87
2023/07/16 09:15:52;;;;;;;;;8.33;6.00;;;;;26.24;42.77;100780.44;4850679;29;45437;-87
2023/07/16 09:18:25;;;;;;;;;5.00;5.00;;;;;26.22;42.47;100769.63;4834010;29;44865;-87
2023/07/16 09:21:00;;;;;;;;;8.00;8.00;;;;;26.15;42.52;100768.16;4833413;29;47496;-87
2023/07/16 09:23:27;;;;;;;;;6.67;6.67;;;;;26.10;42.75;100776.56;4850635;29;45438;-87
2023/07/16 09:25:54;;;;;;;;;5.67;5.67;;;;;26.08;42.25;100758.53;4835465;29;45364;-87
2023/07/16 09:28:20;;;;;;;;;10.00;7.00;;;;;26.14;41.98;100767.28;4836782;29;45381;-87
2023/07/16 09:30:47;;;;;;;;;7.67;7.67;;;;;26.23;41.84;100775.94;4853272;29;45434;-87
2023/07/16 09:33:16;;;;;;;;;5.00;4.33;;;;;26.30;41.44;100769.25;4836428;29;45383;-87
2023/07/16 09:35:42;;;;;;;;;5.50;5.00;;;;;26.29;41.73;100781.09;4851274;29;45480;-86
2023/07/16 09:38:11;;;;;;;;;7.33;7.00;;;;;26.22;42.21;100782.34;4836190;29;45048;-86
2023/07/16 09:40:38;;;;;;;;;4.67;4.67;;;;;26.13;42.21;100775.53;4837195;29;47092;-86
2023/07/16 09:43:04;;;;;;;;;6.33;6.33;;;;;26.17;42.52;100781.72;4853511;29;45388;-86
2023/07/16 09:45:30;;;;;;;;;7.00;7.00;;;;;26.15;43.13;100785.38;4838702;29;45815;-87
2023/07/16 09:47:55;;;;;;;;;5.67;5.67;;;;;26.06;43.19;100783.13;4837013;29;45445;-87
2023/07/16 09:50:24;;;;;;;;;7.67;6.33;;;;;26.05;42.95;100786.81;4837054;29;46934;-87
2023/07/16 09:52:51;;;;;;;;;7.67;7.00;;;;;25.97;42.78;100774.53;4836888;29;45491;-87
2023/07/16 09:55:21;;;;;;;;;8.67;7.00;;;;;26.05;43.09;100773.19;4837525;29;45396;-87
2023/07/16 09:57:47;;;;;;;;;7.33;7.00;;;;;26.21;42.75;100772.41;4836153;29;45430;-86
2023/07/16 10:00:15;;;;;;;;;8.00;7.33;;;;;26.28;42.43;100758.41;4854548;29;45652;-86
2023/07/16 10:02:41;;;;;;;;;5.00;5.00;;;;;26.41;42.10;100769.56;4852524;29;45181;-86
2023/07/16 10:05:14;;;;;;;;;5.67;5.67;;;;;26.47;41.34;100752.00;4853442;29;45436;-86
2023/07/16 10:07:40;;;;;;;;;6.00;4.00;;;;;26.42;41.61;100763.16;4854043;29;45290;-85
2023/07/16 10:10:11;;;;;;;;;6.00;6.00;;;;;26.55;41.51;100764.25;4836421;29;47196;-86
2023/07/16 10:12:37;;;;;;;;;6.50;6.50;;;;;26.54;41.33;100748.88;4836903;29;45470;-88
2023/07/16 10:15:05;;;;;;;;;7.00;7.00;;;;;26.64;40.62;100753.84;4835926;29;45366;-87
2023/07/16 10:17:32;;;;;;;;;6.67;6.67;;;;;26.64;39.91;100754.75;4835861;29;45316;-86
2023/07/16 10:20:04;;;;;;;;;7.33;6.00;;;;;26.54;39.91;100737.97;4853042;29;45449;-86
2023/07/16 10:22:41;;;;;;;;;4.33;4.00;;;;;26.70;39.68;100759.00;4853032;29;45402;-87
2023/07/16 10:25:21;;;;;;;;;5.67;5.00;;;;;26.72;39.58;100762.50;4836810;29;45375;-87
2023/07/16 10:27:48;;;;;;;;;6.00;5.33;;;;;26.67;39.85;100750.97;4854742;29;45504;-86
2023/07/16 10:30:14;;;;;;;;;8.67;5.67;;;;;26.62;38.88;100744.88;4836914;29;48338;-87
2023/07/16 10:32:40;;;;;;;;;6.33;6.00;;;;;26.66;39.45;100747.38;4836830;29;45452;-86
2023/07/16 10:35:06;;;;;;;;;6.67;6.67;;;;;26.74;39.46;100744.22;4836785;29;45365;-86
2023/07/16 10:37:32;;;;;;;;;6.33;6.33;;;;;26.83;39.35;100751.94;4836888;29;45351;-86
2023/07/16 10:39:59;;;;;;;;;5.00;5.00;;;;;26.89;39.67;100737.06;4835390;29;47056;-86
2023/07/16 10:42:27;;;;;;;;;5.67;3.67;;;;;27.04;39.12;100738.94;4853990;29;45626;-86
2023/07/16 10:44:57;;;;;;;;;4.67;4.67;;;;;27.10;39.03;100735.00;4837696;29;45022;-87
2023/07/16 10:47:25;;;;;;;;;5.00;5.00;;;;;27.22;38.39;100745.25;4837048;29;45349;-86
2023/07/16 10:49:54;;;;;;;;;5.33;5.33;;;;;27.20;38.52;100725.34;4835975;29;47144;-86
2023/07/16 10:52:23;;;;;;;;;8.00;5.33;;;;;27.27;38.60;100712.28;4853513;29;45369;-87
2023/07/16 10:54:51;;;;;;;;;6.00;6.00;;;;;27.52;38.60;100723.56;4852161;29;45452;-87
2023/07/16 10:57:20;;;;;;;;;4.00;4.00;;;;;27.71;38.01;100728.88;4852617;29;45513;-86
2023/07/16 10:59:45;;;;;;;;;5.00;5.00;;;;;27.81;37.84;100698.25;4853011;29;45998;-86
2023/07/16 11:02:13;;;;;;;;;5.00;5.00;;;;;28.25;37.09;100733.91;4837063;29;45350;-86
2023/07/16 11:04:44;;;;;;;;;6.33;6.33;;;;;28.26;37.45;100727.50;4854604;29;45324;-86
2023/07/16 11:07:14;;;;;;;;;6.67;6.67;;;;;28.32;36.42;100726.25;4837063;29;45830;-86
2023/07/16 11:09:48;;;;;;;;;5.33;5.33;;;;;28.27;36.88;100734.69;4836092;29;47179;-86
2023/07/16 11:12:20;;;;;;;;;6.33;4.67;;;;;28.26;37.11;100741.16;4835461;29;45419;-87
2023/07/16 11:14:47;;;;;;;;;5.33;3.33;;;;;28.17;36.35;100728.03;4836347;29;45306;-87
2023/07/16 11:17:14;;;;;;;;;6.67;5.00;;;;;28.03;36.58;100725.22;4836406;29;45511;-86
2023/07/16 11:19:42;;;;;;;;;5.33;5.33;;;;;27.92;37.09;100706.75;4852442;29;46820;-86
2023/07/16 11:22:09;;;;;;;;;6.33;5.00;;;;;28.12;35.98;100728.31;4835725;29;44790;-86
2023/07/16 11:24:41;;;;;;;;;4.00;4.00;;;;;28.19;36.33;100708.81;4835465;29;45349;-86
2023/07/16 11:27:20;;;;;;;;;7.33;6.33;;;;;28.37;35.27;100715.88;4852350;29;45531;-87